createdAt,value
2022-08-27T00:00:56.239Z,97732.00
2022-08-27T00:04:57.224Z,97744.00
2022-08-27T00:08:58.115Z,97731.00
2022-08-27T00:13:00.399Z,97729.00
2022-08-27T00:17:01.529Z,97726.00
2022-08-27T00:21:03.943Z,97720.00
2022-08-27T00:25:07.617Z,97718.00
2022-08-27T00:29:08.595Z,97717.00
2022-08-27T00:33:10.208Z,97717.00
2022-08-27T00:37:11.212Z,97714.00
2022-08-27T00:41:13.431Z,97712.00
2022-08-27T00:45:20.110Z,97721.00
2022-08-27T00:49:28.019Z,97713.00
2022-08-27T00:53:32.727Z,97719.00
2022-08-27T00:57:38.243Z,97717.00
2022-08-27T01:01:41.480Z,97716.00
2022-08-27T01:05:44.847Z,97716.00
2022-08-27T01:09:48.425Z,97715.00
2022-08-27T01:14:00.426Z,97720.00
2022-08-27T01:17:57.514Z,97712.00
2022-08-27T01:22:05.185Z,97717.00
2022-08-27T01:26:07.959Z,97724.00
2022-08-27T01:30:11.704Z,97717.00
2022-08-27T01:34:12.794Z,97646.00
2022-08-27T01:38:18.822Z,97718.00
2022-08-27T01:42:21.795Z,97721.00
2022-08-27T01:46:25.414Z,97721.00
2022-08-27T01:50:31.215Z,97725.00
2022-08-27T01:54:33.020Z,97722.00
2022-08-27T01:58:34.403Z,97728.00
2022-08-27T02:02:35.696Z,97723.00
2022-08-27T02:06:36.785Z,97716.00
2022-08-27T02:10:39.792Z,97710.00
2022-08-27T02:14:40.941Z,97705.00
2022-08-27T02:18:42.724Z,97702.00
2022-08-27T02:22:45.006Z,97703.00
2022-08-27T02:26:46.118Z,97708.00
2022-08-27T02:30:47.280Z,97701.00
2022-08-27T02:34:48.275Z,97701.00
2022-08-27T02:38:50.360Z,97712.00
2022-08-27T02:42:52.035Z,97695.00
2022-08-27T02:46:53.752Z,97705.00
2022-08-27T02:50:55.222Z,97704.00
2022-08-27T02:54:56.995Z,97695.00
2022-08-27T02:58:59.400Z,97700.00
2022-08-27T03:03:01.553Z,97690.00
2022-08-27T03:07:03.324Z,97690.00
2022-08-27T03:11:06.199Z,97689.00
2022-08-27T03:15:09.969Z,97695.00
2022-08-27T03:19:11.431Z,97701.00
2022-08-27T03:23:14.604Z,97705.00
2022-08-27T03:27:15.621Z,97700.00
2022-08-27T03:31:21.746Z,97701.00
2022-08-27T03:35:22.929Z,97703.00
2022-08-27T03:39:23.931Z,97701.00
2022-08-27T03:43:25.182Z,97706.00
2022-08-27T03:47:26.075Z,97710.00
2022-08-27T03:51:27.074Z,97703.00
2022-08-27T03:55:28.164Z,97700.00
2022-08-27T03:59:29.154Z,97699.00
2022-08-27T04:03:30.935Z,97700.00
2022-08-27T04:07:32.953Z,97701.00
2022-08-27T04:11:34.637Z,97705.00
2022-08-27T04:15:37.823Z,97708.00
2022-08-27T04:19:38.499Z,97701.00
2022-08-27T04:23:41.222Z,97714.00
2022-08-27T04:27:42.826Z,97713.00
2022-08-27T04:31:43.880Z,97715.00
2022-08-27T04:35:44.899Z,97711.00
2022-08-27T04:39:50.172Z,97713.00
2022-08-27T04:43:52.089Z,97716.00
2022-08-27T04:47:53.099Z,97715.00
2022-08-27T04:51:54.597Z,97727.00
2022-08-27T04:55:56.996Z,97722.00
2022-08-27T04:59:57.970Z,97722.00
2022-08-27T05:03:59.260Z,97726.00
2022-08-27T05:08:00.149Z,97727.00
2022-08-27T05:12:01.338Z,97729.00
2022-08-27T05:16:06.155Z,97737.00
2022-08-27T05:20:09.679Z,97730.00
2022-08-27T05:24:11.081Z,97728.00
2022-08-27T05:28:13.259Z,97727.00
2022-08-27T05:32:14.303Z,97723.00
2022-08-27T05:36:25.767Z,97727.00
2022-08-27T05:40:27.061Z,97732.00
2022-08-27T05:44:43.988Z,97735.00
2022-08-27T05:48:33.296Z,97724.00
2022-08-27T05:52:35.931Z,97736.00
2022-08-27T05:56:38.159Z,97730.00
2022-08-27T06:01:02.468Z,97735.00
2022-08-27T06:05:00.770Z,97740.00
2022-08-27T06:09:02.395Z,97735.00
2022-08-27T06:13:03.803Z,97735.00
2022-08-27T06:17:05.760Z,97733.00
2022-08-27T06:21:07.592Z,97733.00
2022-08-27T06:25:08.855Z,97737.00
2022-08-27T06:29:12.126Z,97751.00
2022-08-27T06:33:13.131Z,97742.00
2022-08-27T06:37:14.136Z,97744.00
2022-08-27T06:41:23.656Z,97750.00
2022-08-27T06:45:21.759Z,97760.00
2022-08-27T06:49:23.475Z,97753.00
2022-08-27T06:53:24.691Z,97750.00
2022-08-27T06:57:25.672Z,97753.00
2022-08-27T07:01:30.714Z,97753.00
2022-08-27T07:05:33.898Z,97758.00
2022-08-27T07:09:35.073Z,97765.00
2022-08-27T07:13:36.990Z,97753.00
2022-08-27T07:17:40.097Z,97750.00
2022-08-27T07:21:43.119Z,97755.00
2022-08-27T07:25:44.841Z,97750.00
2022-08-27T07:29:45.949Z,97751.00
2022-08-27T07:33:51.385Z,97748.00
2022-08-27T07:37:51.762Z,97747.00
2022-08-27T07:42:15.930Z,97759.00
2022-08-27T07:46:17.049Z,97758.00
2022-08-27T07:50:18.936Z,97769.00
2022-08-27T07:54:22.081Z,97765.00
2022-08-27T07:58:23.165Z,97766.00
2022-08-27T08:02:24.314Z,97766.00
2022-08-27T08:06:25.789Z,97762.00
2022-08-27T08:10:26.886Z,97753.00
2022-08-27T08:14:29.947Z,97760.00
2022-08-27T08:18:31.561Z,97767.00
2022-08-27T08:22:32.679Z,97760.00
2022-08-27T08:26:33.915Z,97777.00
2022-08-27T08:30:35.340Z,97770.00
2022-08-27T08:34:36.702Z,97775.00
2022-08-27T08:38:39.393Z,97776.00
2022-08-27T08:42:50.566Z,97785.00
2022-08-27T08:46:52.270Z,97780.00
2022-08-27T08:50:57.101Z,97789.00
2022-08-27T08:55:13.690Z,97796.00
2022-08-27T08:59:24.559Z,97789.00
2022-08-27T09:03:27.480Z,97794.00
2022-08-27T09:07:48.065Z,97796.00
2022-08-27T09:12:04.761Z,97799.00
2022-08-27T09:16:06.760Z,97801.00
2022-08-27T09:20:13.340Z,97799.00
2022-08-27T09:24:22.877Z,97800.00
2022-08-27T09:28:45.641Z,97796.00
2022-08-27T09:32:56.331Z,97803.00
2022-08-27T09:37:03.686Z,97800.00
2022-08-27T09:41:11.504Z,97809.00
2022-08-27T09:45:19.142Z,97796.00
2022-08-27T09:49:20.235Z,97823.00
2022-08-27T09:53:25.699Z,97811.00
2022-08-27T09:57:36.380Z,97809.00
2022-08-27T10:01:50.706Z,97807.00
2022-08-27T10:05:53.612Z,97806.00
2022-08-27T10:09:58.529Z,97802.00
2022-08-27T10:14:13.228Z,97804.00
2022-08-27T10:18:18.140Z,97810.00
2022-08-27T10:22:35.136Z,97808.00
2022-08-27T10:26:42.940Z,97805.00
2022-08-27T10:31:11.247Z,97797.00
2022-08-27T10:35:25.246Z,97805.00
2022-08-27T10:39:42.741Z,97797.00
2022-08-27T10:43:59.602Z,97798.00
2022-08-27T10:48:13.362Z,97805.00
2022-08-27T10:52:37.975Z,97794.00
2022-08-27T10:56:48.827Z,97801.00
2022-08-27T11:01:10.622Z,97796.00
2022-08-27T11:05:27.286Z,97789.00
2022-08-27T11:09:40.987Z,97797.00
2022-08-27T11:13:48.596Z,97800.00
2022-08-27T11:17:53.490Z,97798.00
2022-08-27T11:22:01.276Z,97803.00
2022-08-27T11:26:04.958Z,97792.00
2022-08-27T11:30:09.906Z,97792.00
2022-08-27T11:34:35.197Z,97799.00
2022-08-27T11:38:41.009Z,97791.00
2022-08-27T11:42:47.749Z,97798.00
2022-08-27T11:46:53.257Z,97801.00
2022-08-27T11:51:10.271Z,97795.00
2022-08-27T11:55:24.071Z,97795.00
2022-08-27T11:59:31.884Z,97798.00
2022-08-27T12:03:35.409Z,97797.00
2022-08-27T12:07:40.711Z,97800.00
2022-08-27T12:11:45.544Z,97807.00
2022-08-27T12:16:01.387Z,97799.00
2022-08-27T12:20:29.305Z,97804.00
2022-08-27T12:24:34.256Z,97800.00
2022-08-27T12:28:35.696Z,97798.00
2022-08-27T12:32:40.436Z,97798.00
2022-08-27T12:36:41.736Z,97799.00
2022-08-27T12:40:57.282Z,97796.00
2022-08-27T12:44:59.272Z,97793.00
2022-08-27T12:49:36.774Z,97787.00
2022-08-27T12:53:16.568Z,97783.00
2022-08-27T12:57:36.364Z,97790.00
2022-08-27T13:01:50.029Z,97794.00
2022-08-27T13:05:53.185Z,97791.00
2022-08-27T13:09:57.299Z,97787.00
2022-08-27T13:14:07.026Z,97785.00
2022-08-27T13:18:09.800Z,97780.00
2022-08-27T13:22:13.065Z,97778.00
2022-08-27T13:26:14.138Z,97781.00
2022-08-27T13:30:22.971Z,97762.00
2022-08-27T13:34:21.788Z,97776.00
2022-08-27T13:38:25.365Z,97771.00
2022-08-27T13:42:27.175Z,97762.00
2022-08-27T13:46:30.548Z,97771.00
2022-08-27T13:50:34.093Z,97755.00
2022-08-27T13:54:35.473Z,97765.00
2022-08-27T13:58:36.908Z,97753.00
2022-08-27T14:02:38.125Z,97761.00
2022-08-27T14:06:42.937Z,97744.00
2022-08-27T14:10:47.835Z,97752.00
2022-08-27T14:14:50.827Z,97750.00
2022-08-27T14:19:04.557Z,97756.00
2022-08-27T14:23:05.542Z,97757.00
2022-08-27T14:27:13.140Z,97757.00
2022-08-27T14:31:14.602Z,97748.00
2022-08-27T14:35:25.148Z,97751.00
2022-08-27T14:39:20.291Z,97750.00
2022-08-27T14:43:24.010Z,97745.00
2022-08-27T14:47:26.441Z,97748.00
2022-08-27T14:51:30.763Z,97751.00
2022-08-27T14:55:31.637Z,97765.00
2022-08-27T14:59:33.390Z,97756.00
2022-08-27T15:03:40.886Z,97761.00
2022-08-27T15:07:42.239Z,97767.00
2022-08-27T15:11:46.588Z,97767.00
2022-08-27T15:15:47.660Z,97762.00
2022-08-27T15:19:48.752Z,97768.00
2022-08-27T15:23:52.071Z,97765.00
2022-08-27T15:27:54.180Z,97771.00
2022-08-27T15:31:55.625Z,97768.00
2022-08-27T15:35:59.843Z,97766.00
2022-08-27T15:40:01.122Z,97765.00
2022-08-27T15:44:03.586Z,97758.00
2022-08-27T15:48:05.712Z,97754.00
2022-08-27T15:52:09.258Z,97758.00
2022-08-27T15:56:10.353Z,97762.00
2022-08-27T16:00:12.386Z,97768.00
2022-08-27T16:04:14.900Z,97762.00
2022-08-27T16:08:16.156Z,97769.00
2022-08-27T16:12:26.900Z,97767.00
2022-08-27T16:16:25.646Z,97758.00
2022-08-27T16:20:26.867Z,97761.00
2022-08-27T16:24:27.863Z,97762.00
2022-08-27T16:28:29.060Z,97759.00
2022-08-27T16:32:31.675Z,97774.00
2022-08-27T16:36:32.897Z,97769.00
2022-08-27T16:40:37.770Z,97774.00
2022-08-27T16:44:38.909Z,97785.00
2022-08-27T16:49:01.091Z,97776.00
2022-08-27T16:53:08.854Z,97786.00
2022-08-27T16:57:09.972Z,97776.00
2022-08-27T17:01:13.256Z,97794.00
2022-08-27T17:09:18.213Z,97803.00
2022-08-27T17:13:22.816Z,97797.00
2022-08-27T17:17:29.067Z,97806.00
2022-08-27T17:21:32.224Z,97811.00
2022-08-27T17:25:33.230Z,97807.00
2022-08-27T17:29:34.544Z,97826.00
2022-08-27T17:33:39.683Z,97821.00
2022-08-27T17:37:41.489Z,97829.00
2022-08-27T17:41:45.924Z,97825.00
2022-08-27T17:45:48.056Z,97821.00
2022-08-27T17:49:49.153Z,97820.00
2022-08-27T17:53:58.473Z,97820.00
2022-08-27T17:57:57.778Z,97828.00
2022-08-27T18:02:00.383Z,97835.00
2022-08-27T18:06:02.101Z,97833.00
2022-08-27T18:10:03.869Z,97840.00
2022-08-27T18:14:05.199Z,97839.00
2022-08-27T18:18:09.019Z,97853.00
2022-08-27T18:22:10.088Z,97849.00
2022-08-27T18:26:14.345Z,97857.00
2022-08-27T18:30:16.197Z,97862.00
2022-08-27T18:34:20.712Z,97862.00
2022-08-27T18:38:20.687Z,97862.00
2022-08-27T18:42:21.724Z,97872.00
2022-08-27T18:46:22.881Z,97869.00
2022-08-27T18:50:24.550Z,97877.00
2022-08-27T18:54:26.760Z,97880.00
2022-08-27T18:58:28.093Z,97887.00
2022-08-27T19:02:30.404Z,97889.00
2022-08-27T19:06:32.357Z,97901.00
2022-08-27T19:10:33.480Z,97902.00
2022-08-27T19:14:34.543Z,97901.00
2022-08-27T19:18:37.672Z,97903.00
2022-08-27T19:22:39.030Z,97911.00
2022-08-27T19:26:41.258Z,97915.00
2022-08-27T19:30:43.668Z,97909.00
2022-08-27T19:34:44.855Z,97923.00
2022-08-27T19:38:49.775Z,97913.00
2022-08-27T19:42:51.155Z,97914.00
2022-08-27T19:46:54.860Z,97915.00
2022-08-27T19:50:55.989Z,97922.00
2022-08-27T19:55:13.236Z,97928.00
2022-08-27T19:59:08.924Z,97928.00
2022-08-27T20:03:03.440Z,97925.00
2022-08-27T20:07:05.657Z,97929.00
2022-08-27T20:11:06.862Z,97934.00
2022-08-27T20:15:08.277Z,97927.00
2022-08-27T20:19:09.927Z,97931.00
2022-08-27T20:23:11.158Z,97929.00
2022-08-27T20:27:12.125Z,97936.00
2022-08-27T20:31:13.524Z,97932.00
2022-08-27T20:35:15.967Z,97947.00
2022-08-27T20:39:17.962Z,97945.00
2022-08-27T20:43:20.196Z,97950.00
2022-08-27T20:47:25.788Z,97952.00
2022-08-27T20:51:27.255Z,97959.00
2022-08-27T20:55:30.048Z,97956.00
2022-08-27T20:59:50.079Z,97961.00
2022-08-27T21:03:51.779Z,97958.00
2022-08-27T21:07:53.674Z,97968.00
2022-08-27T21:16:05.013Z,97971.00
2022-08-27T21:20:08.509Z,97974.00
2022-08-27T21:24:10.009Z,97964.00
2022-08-27T21:28:11.933Z,97964.00
2022-08-27T21:32:13.947Z,97969.00
2022-08-27T21:36:15.295Z,97972.00
2022-08-27T21:40:18.387Z,97964.00
2022-08-27T21:44:19.495Z,97975.00
2022-08-27T21:48:20.973Z,97966.00
2022-08-27T21:52:23.189Z,97969.00
2022-08-27T21:56:25.502Z,97969.00
2022-08-27T22:00:32.281Z,97983.00
2022-08-27T22:04:34.070Z,97973.00
2022-08-27T22:08:35.187Z,97987.00
2022-08-27T22:12:36.498Z,97968.00
2022-08-27T22:16:37.796Z,97972.00
2022-08-27T22:20:39.456Z,97964.00
2022-08-27T22:24:40.692Z,97962.00
2022-08-27T22:28:41.841Z,97965.00
2022-08-27T22:32:43.618Z,97961.00
2022-08-27T22:36:44.665Z,97962.00
2022-08-27T22:40:48.169Z,97963.00
2022-08-27T22:44:49.192Z,97958.00
2022-08-27T22:48:50.724Z,97965.00
2022-08-27T22:52:53.249Z,97963.00
2022-08-27T22:56:54.692Z,97962.00
2022-08-27T23:00:56.141Z,97967.00
2022-08-27T23:04:57.703Z,97958.00
2022-08-27T23:09:00.369Z,97962.00
2022-08-27T23:13:01.982Z,97960.00
2022-08-27T23:17:03.416Z,97962.00
2022-08-27T23:25:29.438Z,97949.00
2022-08-27T23:29:31.345Z,97943.00
2022-08-27T23:33:32.641Z,97938.00
2022-08-27T23:37:33.902Z,97935.00
2022-08-27T23:41:35.276Z,97938.00
2022-08-27T23:45:40.499Z,97933.00
2022-08-27T23:49:39.812Z,97936.00
2022-08-27T23:53:40.835Z,97926.00
2022-08-27T23:57:41.839Z,97941.00
